createdAt,value
2023-03-14T00:02:08.543Z,12.44
2023-03-14T00:07:12.438Z,12.45
2023-03-14T00:12:15.421Z,12.43
2023-03-14T00:17:17.103Z,12.43
2023-03-14T00:22:19.101Z,12.41
2023-03-14T00:27:20.714Z,12.23
2023-03-14T00:32:22.418Z,12.24
2023-03-14T00:37:24.139Z,12.28
2023-03-14T00:42:25.743Z,12.24
2023-03-14T00:47:27.392Z,12.20
2023-03-14T00:52:29.067Z,12.22
2023-03-14T00:57:30.813Z,12.24
2023-03-14T01:02:32.644Z,12.19
2023-03-14T01:07:34.528Z,12.18
2023-03-14T01:12:36.213Z,12.16
2023-03-14T01:17:40.908Z,12.16
2023-03-14T01:22:43.580Z,12.13
2023-03-14T01:27:45.518Z,12.12
2023-03-14T01:32:47.280Z,12.16
2023-03-14T01:37:48.939Z,12.18
2023-03-14T01:42:57.622Z,12.02
2023-03-14T01:47:59.303Z,12.03
2023-03-14T01:53:01.280Z,12.06
2023-03-14T01:58:05.591Z,12.07
2023-03-14T02:03:12.547Z,12.07
2023-03-14T02:08:16.800Z,12.04
2023-03-14T02:13:23.580Z,12.06
2023-03-14T02:18:48.942Z,12.04
2023-03-14T02:24:39.594Z,12.03
2023-03-14T02:30:01.019Z,12.01
2023-03-14T02:35:08.135Z,11.96
2023-03-14T02:40:10.825Z,11.94
2023-03-14T02:45:16.747Z,11.91
2023-03-14T02:50:22.525Z,11.92
2023-03-14T02:55:24.885Z,11.75
2023-03-14T03:00:31.515Z,11.86
2023-03-14T03:05:33.610Z,12.06
2023-03-14T03:10:35.605Z,12.08
2023-03-14T03:15:37.739Z,12.08
2023-03-14T03:20:39.552Z,12.10
2023-03-14T03:25:41.299Z,12.09
2023-03-14T03:30:44.015Z,12.09
2023-03-14T03:35:54.968Z,12.11
2023-03-14T03:41:06.870Z,12.15
2023-03-14T03:46:09.044Z,12.21
2023-03-14T03:51:15.660Z,12.24
2023-03-14T03:56:18.206Z,12.22
2023-03-14T04:01:20.217Z,12.15
2023-03-14T04:06:25.575Z,12.14
2023-03-14T04:11:29.925Z,12.11
2023-03-14T04:17:06.679Z,12.21
2023-03-14T04:22:08.721Z,12.22
2023-03-14T04:27:19.340Z,12.19
2023-03-14T04:32:22.565Z,12.26
2023-03-14T04:37:24.696Z,12.20
2023-03-14T04:42:26.525Z,12.25
2023-03-14T04:47:28.404Z,12.12
2023-03-14T04:52:30.301Z,12.22
2023-03-14T04:57:33.133Z,12.17
2023-03-14T05:02:35.692Z,12.14
2023-03-14T05:07:47.510Z,12.17
2023-03-14T05:13:01.077Z,12.12
2023-03-14T05:18:31.674Z,12.08
2023-03-14T05:24:02.347Z,12.05
2023-03-14T05:29:27.060Z,12.11
2023-03-14T05:34:38.755Z,12.09
2023-03-14T05:39:58.880Z,12.11
2023-03-14T05:45:24.987Z,12.12
2023-03-14T05:51:00.290Z,12.08
2023-03-14T05:56:31.139Z,12.15
2023-03-14T06:01:41.518Z,12.08
2023-03-14T06:06:49.723Z,12.07
2023-03-14T06:11:52.435Z,12.21
2023-03-14T06:16:55.459Z,12.30
2023-03-14T06:21:59.299Z,12.16
2023-03-14T06:27:03.917Z,12.21
2023-03-14T06:32:06.657Z,12.21
2023-03-14T06:37:08.547Z,12.31
2023-03-14T06:42:10.682Z,12.33
2023-03-14T06:47:14.150Z,12.34
2023-03-14T06:52:18.961Z,12.41
2023-03-14T06:57:20.682Z,12.39
2023-03-14T07:02:36.061Z,12.43
2023-03-14T07:07:49.661Z,12.55
2023-03-14T07:12:53.839Z,12.55
2023-03-14T07:17:58.298Z,12.48
2023-03-14T07:23:01.189Z,12.55
2023-03-14T07:28:12.612Z,12.52
2023-03-14T07:33:16.947Z,12.62
2023-03-14T07:38:22.252Z,12.59
2023-03-14T07:43:59.896Z,12.67
2023-03-14T07:49:01.534Z,12.66
2023-03-14T07:54:03.272Z,12.72
2023-03-14T07:59:04.901Z,12.73
2023-03-14T08:04:06.592Z,12.68
2023-03-14T08:09:08.437Z,12.80
2023-03-14T08:14:12.069Z,12.67
2023-03-14T08:19:13.664Z,12.76
2023-03-14T08:24:15.241Z,12.93
2023-03-14T08:29:16.895Z,13.06
2023-03-14T08:34:18.695Z,13.17
2023-03-14T08:39:20.262Z,13.20
2023-03-14T08:44:21.869Z,13.17
2023-03-14T08:49:23.608Z,13.24
2023-03-14T08:54:25.385Z,13.33
2023-03-14T08:59:27.113Z,13.31
2023-03-14T09:04:28.796Z,13.32
2023-03-14T09:09:33.477Z,13.31
2023-03-14T09:14:35.272Z,13.28
2023-03-14T09:19:37.019Z,13.38
2023-03-14T09:24:38.586Z,13.41
2023-03-14T09:29:40.208Z,13.43
2023-03-14T09:34:41.860Z,13.54
2023-03-14T09:39:43.894Z,13.41
2023-03-14T09:44:58.321Z,13.37
2023-03-14T09:50:02.541Z,13.30
2023-03-14T09:55:07.403Z,13.38
2023-03-14T10:00:19.297Z,13.20
2023-03-14T10:05:23.416Z,13.20
2023-03-14T10:10:26.960Z,13.26
2023-03-14T10:15:33.790Z,13.25
2023-03-14T10:20:41.149Z,13.26
2023-03-14T10:25:45.620Z,13.18
2023-03-14T10:30:47.386Z,13.24
2023-03-14T10:36:24.699Z,13.26
2023-03-14T10:41:28.162Z,13.27
2023-03-14T10:46:32.444Z,13.35
2023-03-14T10:51:52.621Z,13.31
2023-03-14T10:57:01.705Z,13.39
2023-03-14T11:02:15.289Z,13.31
2023-03-14T11:07:30.492Z,13.36
2023-03-14T11:12:47.084Z,13.46
2023-03-14T11:18:14.358Z,13.44
2023-03-14T11:23:21.826Z,13.46
2023-03-14T11:28:37.566Z,13.62
2023-03-14T11:33:45.523Z,13.59
2023-03-14T11:38:50.228Z,13.71
2023-03-14T11:43:56.347Z,13.91
2023-03-14T11:49:22.140Z,13.95
2023-03-14T11:54:34.260Z,13.95
2023-03-14T12:00:13.755Z,13.84
2023-03-14T12:05:24.442Z,13.94
2023-03-14T12:10:26.018Z,13.73
2023-03-14T12:15:27.622Z,13.98
2023-03-14T12:20:29.234Z,13.98
2023-03-14T12:25:33.053Z,14.24
2023-03-14T12:30:42.143Z,14.40
2023-03-14T12:35:53.885Z,14.18
2023-03-14T12:41:33.003Z,14.10
2023-03-14T12:46:34.652Z,14.19
2023-03-14T12:51:38.456Z,14.13
2023-03-14T12:57:00.799Z,14.32
2023-03-14T13:02:08.159Z,14.53
2023-03-14T13:07:53.092Z,14.45
2023-03-14T13:12:58.386Z,14.47
2023-03-14T13:18:24.016Z,14.52
2023-03-14T13:23:34.387Z,14.74
2023-03-14T13:28:36.211Z,14.59
2023-03-14T13:33:37.782Z,14.76
2023-03-14T13:38:39.346Z,14.81
2023-03-14T13:43:42.180Z,14.83
2023-03-14T13:49:04.910Z,14.96
2023-03-14T13:54:21.305Z,14.92
2023-03-14T13:59:36.525Z,14.99
2023-03-14T14:04:38.551Z,14.79
2023-03-14T14:09:44.084Z,14.79
2023-03-14T14:14:57.177Z,14.92
2023-03-14T14:19:59.992Z,14.68
2023-03-14T14:25:02.771Z,14.78
2023-03-14T14:30:19.647Z,14.64
2023-03-14T14:35:35.417Z,14.62
2023-03-14T14:40:45.206Z,14.70
2023-03-14T14:45:49.284Z,14.85
2023-03-14T14:51:05.940Z,14.88
2023-03-14T14:56:23.492Z,14.89
2023-03-14T15:01:27.765Z,14.89
2023-03-14T15:06:31.918Z,14.78
2023-03-14T15:11:33.526Z,14.82
2023-03-14T15:16:35.664Z,14.56
2023-03-14T15:21:37.352Z,14.44
2023-03-14T15:26:39.100Z,14.33
2023-03-14T15:31:41.604Z,14.37
2023-03-14T15:36:43.310Z,14.32
2023-03-14T15:41:44.897Z,14.37
2023-03-14T15:46:46.518Z,14.33
2023-03-14T15:51:48.091Z,14.27
2023-03-14T15:56:49.659Z,14.28
2023-03-14T16:01:51.468Z,14.17
2023-03-14T16:06:53.087Z,14.16
2023-03-14T16:11:54.966Z,14.09
2023-03-14T16:16:59.999Z,14.07
2023-03-14T16:22:01.742Z,14.13
2023-03-14T16:27:03.402Z,13.72
2023-03-14T16:32:05.450Z,13.64
2023-03-14T16:37:07.199Z,13.75
2023-03-14T16:42:08.966Z,13.45
2023-03-14T16:47:11.109Z,13.02
2023-03-14T16:52:12.885Z,12.13
2023-03-14T16:57:14.421Z,11.30
2023-03-14T17:02:16.166Z,11.74
2023-03-14T17:07:17.760Z,10.43
2023-03-14T17:12:19.319Z,10.65
2023-03-14T17:17:20.934Z,10.35
2023-03-14T17:22:25.128Z,10.39
2023-03-14T17:27:30.704Z,10.16
2023-03-14T17:32:32.344Z,9.78
2023-03-14T17:37:34.490Z,9.21
2023-03-14T17:42:36.072Z,6.97
2023-03-14T17:47:37.674Z,6.59
2023-03-14T17:52:39.626Z,7.30
2023-03-14T17:57:43.981Z,7.33
2023-03-14T18:02:45.916Z,7.23
2023-03-14T18:07:47.526Z,6.67
2023-03-14T18:12:49.095Z,7.21
2023-03-14T18:17:50.939Z,7.30
2023-03-14T18:22:52.502Z,7.00
2023-03-14T18:27:54.185Z,7.51
2023-03-14T18:32:55.822Z,7.17
2023-03-14T18:37:57.462Z,7.26
2023-03-14T18:42:59.038Z,7.49
2023-03-14T18:48:00.757Z,7.09
2023-03-14T18:53:03.098Z,7.80
2023-03-14T18:58:04.659Z,7.83
2023-03-14T19:03:06.288Z,7.12
2023-03-14T19:08:07.893Z,7.52
2023-03-14T19:13:09.460Z,7.71
2023-03-14T19:18:11.290Z,7.60
2023-03-14T19:23:15.462Z,7.88
2023-03-14T19:28:17.328Z,7.86
2023-03-14T19:33:19.102Z,7.79
2023-03-14T19:38:20.706Z,7.92
2023-03-14T19:43:22.278Z,7.85
2023-03-14T19:48:30.098Z,8.01
2023-03-14T19:53:32.100Z,7.96
2023-03-14T19:58:34.049Z,8.07
2023-03-14T20:03:36.520Z,7.97
2023-03-14T20:08:38.911Z,7.62
2023-03-14T20:13:40.600Z,7.89
2023-03-14T20:18:42.238Z,7.77
2023-03-14T20:23:44.156Z,7.79
2023-03-14T20:28:47.184Z,7.60
2023-03-14T20:33:51.301Z,7.63
2023-03-14T20:38:53.585Z,7.74
2023-03-14T20:43:55.188Z,7.80
2023-03-14T20:48:56.753Z,7.48
2023-03-14T20:53:58.459Z,7.27
2023-03-14T20:59:00.017Z,7.52
2023-03-14T21:04:01.933Z,7.37
2023-03-14T21:09:05.580Z,7.36
2023-03-14T21:14:07.244Z,7.38
2023-03-14T21:19:08.812Z,7.32
2023-03-14T21:24:10.461Z,7.08
2023-03-14T21:29:12.212Z,7.25
2023-03-14T21:34:13.869Z,6.93
2023-03-14T21:39:15.559Z,7.25
2023-03-14T21:44:19.053Z,6.98
2023-03-14T21:49:20.729Z,6.98
2023-03-14T21:54:22.414Z,6.73
2023-03-14T21:59:24.021Z,6.98
2023-03-14T22:04:25.888Z,6.94
2023-03-14T22:09:27.587Z,6.85
2023-03-14T22:14:29.133Z,6.89
2023-03-14T22:19:34.737Z,6.69
2023-03-14T22:24:36.240Z,6.86
2023-03-14T22:29:37.939Z,6.78
2023-03-14T22:34:39.541Z,6.77
2023-03-14T22:39:41.286Z,6.64
2023-03-14T22:44:42.812Z,6.68
2023-03-14T22:49:44.606Z,6.69
2023-03-14T22:54:46.209Z,6.66
2023-03-14T22:59:47.775Z,6.56
2023-03-14T23:04:49.471Z,6.45
2023-03-14T23:09:51.085Z,6.33
2023-03-14T23:14:53.898Z,6.35
2023-03-14T23:19:55.642Z,6.36
2023-03-14T23:24:57.190Z,6.22
2023-03-14T23:29:58.803Z,6.15
2023-03-14T23:35:00.379Z,6.08
2023-03-14T23:40:03.080Z,6.22
2023-03-14T23:45:05.116Z,6.14
2023-03-14T23:50:07.154Z,5.98
2023-03-14T23:55:09.176Z,6.07
